Quincy, California
Current Conditions -  °F | °C
As of 12:53 AM on Saturday 29 Nov 2014 (Local Time) from KOVE Reporting Station
Overcast Overcast  
Wind Chill: 54°   Ceiling: 2300
Heat Index: 54°   Visibility: 10mi
Dew Point: 48°   Wind: 14mph
Humidity: 80%   Direction: 130°SE
Pressure: 29.86"   Gusts: NA
Location:  39.94°N, 120.95°W
Report Text: KOVE 290853Z AUTO 13012KT 10SM OVC023 12/09 A2986 RMK AO2 RAE31 SLP112 P0000 60004 T01220089 58001
Loading
Personal Weather Stations






























Interactive Weather Map New forecast layout! Learn more

10-Day Weather Forecast

Advertisements
Track Severe Weather on mobile